Cascade Lake Triathlon & Duathlon

Race Date: Sunday May 16, 2010
Description: Tri: 0.31 Mile Swim~15 Mile Bike~3.1 Mile Run
Du: 1.86 Mile Run~15 Mile Bike~3.1 Mile Run
Race Category: Sprint Triathlon
Total Entrants: 308

 PlaceNameCityStateRace AgeGenderDivisionClubTimeBib#
View 1 Mccollum, Lucas Frederick MD 30 M M30-34 Snapple Tri Team 1:07:51 134
View 2 Coon, Scott Bel Air MD 41 M M40-44 Tri-Speed 1:07:56 195
View 3 Keller, Otho Cockeysville MD 33 M M30-34 Tri-Speed 1:07:59 137
View 4 Benda, Brian Parkton MD 40 M M40-44 Tri-Speed 1:08:37 425
View 5 Torr, Craig Upper Montclair NJ 31 M M30-34 1:08:37 125
View 6 Van Lierop, Anthony Baltimore MD 37 M M35-39 Tri-Speed 1:09:27 166
View 7 Liberto, Joe New Windsor MD 36 M M35-39 1:11:08 160
View 8 Padgett, Scott Severn MD 28 M M25-29 PHPI Racing 1:13:29 102
View 9 Buckson, Kent Rehoboth Beach DE 43 M M40-44 Team Bricks MultiSport 1:13:37 197
View 10 Facciani, Mark Pasadena MD 42 M M40-44 Annapolis Triathlon Club 1:14:37 199
View 11 Mashner, Michael Baltimore MD 31 M M30-34 1:15:17 143
View 12 Dicks, Zach Duncannon PA 21 M M20-24 1:15:34 85
View 13 Marchione, Vincenzo Middletown DE 33 M M30-34 1:17:37 139
View 14 Kopper, Michael Baltimore MD 30 M M30-34 Baltimore Area Triathlon Club (BATC) 1:17:55 140
View 15 Chapman, Tyler Washington DC 30 M M30-34 Bike Rack Multisport 1:18:04 138
View 16 Rentch, Darren Washington DC 40 M M40-44 Bike Rack Multisport 1:18:11 205
View 17 Corbi, George Middletown MD 47 M M45-49 Frederick Triathlon Club 1:18:40 234
View 18 Sepich, Bill Delran NJ 23 M M20-24 1:18:42 87
View 19 Ehman, Derek Sparks MD 41 M M40-44 Baltimore Area Triathlon Club (BATC) 1:18:46 194
View 20 Miller, Chris Frederick MD 33 M M30-34 1:18:47 123
View 21 Dewitt, Adam Alexandria VA 27 M M25-29 1:18:57 429
View 22 Mccallum, Jeremy Baltimore MD 27 M M25-29 1:19:03 112
View 23 Fabian, Tad Middletown DE 41 M M40-44 Team Bricks MultiSport 1:19:07 180
View 24 Wyatt, Michael Lutherville MD 46 M M45-49 Baltimore Area Triathlon Club (BATC) 1:19:26 237
View 25 Pfister, Greg Germantown MD 20 M M20-24 1:20:20 89
View 26 Killy, Quinn Silver Spring MD 40 M M40-44 1:20:41 173
View 27 Fletcher, Daniel Harpers Ferry WV 39 M M35-39 1:20:41 168
View 28 Martin, Alex Monkton MD 40 M M40-44 1:20:55 193
View 29 Parisi, Bob Ellicott City MD 41 M M40-44 1:21:02 200
View 30 Hawman, Michael Rockville MD 31 M M30-34 1:21:05 124
View 31 Land, Emory Alexandria VA 33 M M30-34 Bike Rack Multisport 1:21:15 141
View 32 Macmurray, Don Baltimore MD 26 M M25-29 1:21:31 95
View 33 Hudson, Mandy Sparks MD 40 F F40-44 Baltimore Area Triathlon Club (BATC) 1:21:38 358
View 34 Mauler, Jeffrey Reisterstown MD 55 M M55-59 1:21:46 254
View 35 Graves, Justin Baltimore MD 29 M M25-29 Baltimore Area Triathlon Club (BATC) 1:22:10 100
View 36 Martin, Serena Monkton MD 37 F F35-39 Tri-Speed 1:22:37 348
View 37 Martin, Michael Baltimore MD 51 M M50-54 Baltimore Area Triathlon Club (BATC) 1:22:45 245
View 38 Weddington, Adam Columbia MD 31 M M30-34 Mid-Maryland Tri Club 1:23:03 130
View 39 Hamburg, Michael Owings Mills MD 41 M M40-44 1:23:17 169
View 40 Warfel, Chip Ellicott City MD 48 M M45-49 Mid-Maryland Tri Club 1:23:38 233
View 41 Price, Bob Gaithersburg MD 39 M M35-39 1:23:41 149
View 42 Decker, Kenneth Beltsville MD 24 M M20-24 1:23:55 90
View 43 Hart, Thomas Kensington MD 42 M M40-44 1:23:59 178
View 44 Faurot, Michelle Annapolis MD 50 F F50-54 Annapolis Triathlon Club 1:24:03 405
View 45 Decker, Terrence Baltimore MD 28 M M25-29 Tri-Speed 1:24:27 111
View 46 Zarling, John Washington DC 42 M M40-44 Bike Rack Multisport 1:24:34 203
View 47 Johnston, Ian Baltimore MD 25 M M25-29 1:24:39 96
View 48 Liming, Drew Arlington VA 25 M M25-29 1:24:55 94
View 49 Morningstar, Theresa Baltimore MD 49 F F45-49 Tri-Speed 1:25:04 393
View 50 Dalhoff, Jeff Silver Spring MD 41 M M40-44 1:25:50 206
View 51 Frey, Ken York PA 41 M M40-44 Baltimore Area Triathlon Club (BATC) 1:25:54 175
View 52 Hutchinson, Larry Temple Hills MD 23 M M20-24 1:26:09 84
View 53 Klein, Steve Washington DC 24 M M20-24 1:26:28 82
View 54 Avila, Albert Olney MD 36 M M35-39 1:26:39 145
View 55 Vavasori, Angela Baltimore MD 34 F F30-34 Tri-Speed 1:26:55 331
View 56 Quenzer, Jason Towson MD 34 M M30-34 1:26:58 144
View 57 Jenkins, Shannon Hamburg NJ 32 F F30-34 1:27:05 334
View 58 O'dell, Charles Potomac MD 22 M M20-24 United States Navel Academy 1:27:19 86
View 59 Troop, Devon Hampstead MD 32 F F30-34 1:27:22 323
View 60 Bender, Dave   MD 38 M M35-39 1:27:46 428
View 61 Stokes, Bridget Clarksburg MD 33 F F30-34 1:27:48 55
View 62 Carr, Tammy Olney MD 36 F F35-39 1:28:02 344
View 63 Stultz, Jeremy Pittsburgh PA 25 M M25-29 1:28:15 105
View 64 Hersh, Shana Havre De Grace MD 39 F F35-39 1:28:17 350
View 65 Zilberbaum, Adam Baltimore MD 28 M M25-29 Tri-Speed 1:28:22 110
View 66 Gavidia, Gil Reston VA 49 M M45-49 1:28:46 232
View 67 Book, Bob Owings Mills MD 49 M M45-49 1:29:05 207
View 68 Scott, Christopher Linthicum MD 31 M M30-34 1:29:05 127
View 69 Rivenbark, Tim Elkridge MD 39 M M35-39 1:29:09 146
View 70 Whittaker, Thomas Freeland MD 39 M M35-39 Baltimore Area Triathlon Club (BATC) 1:29:23 150
View 71 Weaver, Troy Elkridge MD 44 M M40-44 Hudson Valley Triathlon Club 1:29:27 170
View 72 Corrigan, Daniel Baltimore MD 45 M M45-49 1:29:44 242
View 73 Carbary, James Columbia MD 59 M M55-59 Howard County Striders 1:29:54 263
View 74 Sykes, Melissa Crofton MD 38 F F35-39 1:29:57 341
View 75 Glover, Andrew Leesburg VA 34 M M30-34 1:30:00 136
View 76 Russell, Chelsea Mount Airy MD 27 F F25-29 1:30:24 311
View 77 Sykes, David Crofton MD 38 M M35-39 1:30:33 152
View 78 Atwell, Glenn Edgewater MD 41 M Clydesdale Annapolis Triathlon Club 1:30:34 275
View 79 Battan, John Millersville MD 56 M M55-59 1:30:39 256
View 80 Louie, Samuel Camden DE 40 M M40-44 Team Bricks MultiSport 1:30:46 201
View 81 Silverman, Michael Ellicott City MD 50 M M50-54 1:30:48 249
View 82 Mclean, Elizabeth Burlington NJ 26 F F25-29 1:30:54 310
View 83 Suckling, Alison Arnold MD 55 F F55-59 1:30:54 410
View 84 Mestre, Cristina Washington DC 29 F F25-29 DC Triathlon Club 1:31:32 315
View 85 Rostkowski, Kelli Baltimore MD 30 F F30-34 Tri-Speed 1:31:47 333
View 86 Pozecki, Holly Parkton MD 37 F F35-39 1:32:08 346
View 87 Blake, Todd Phoenix MD 55 M M55-59 1:32:10 422
View 88 Villar, Julian Atlanta GA 27 M M25-29 1:32:22 108
View 89 Scott, Trevor Elkridge MD 28 M M25-29 1:32:28 107
View 90 Joubert, Kevin Towson MD 38 M Clydesdale Baltimore Area Triathlon Club (BATC) 1:32:31 291
View 91 Scott, Cory Vienna VA 33 M M30-34 1:32:43 135
View 92 Kelley, Tim Arlington VA 28 M Clydesdale 1:32:58 283
View 93 Viviani, Donn Arlington VA 63 M M60-64 1:33:00 270
View 94 Roederer, Robert Severna Park MD 22 M M20-24 1:33:01 83
View 95 Johnson, Mark Mclean VA 37 M M35-39 1:33:13 158
View 96 Paradis, Trevor Reston VA 42 M M40-44 RATS (Reston Area Triathletes) 1:33:24 190
View 97 Wesbecher, Michael Oakton VA 62 M M60-64 1:33:27 268
View 98 Wise, Blair Lutherville MD 44 M M40-44 Tri-Speed 1:33:42 202
View 99 Walker, Robert Baltimore MD 42 M M40-44 1:34:04 187
View 100 Thompson, Craig Frederick MD 38 M M35-39 1:34:06 167
View 101 Zegger, Nina Washington DC 46 F F45-49 1:34:10 394
View 102 Rentch, Jennifer Washington DC 44 F F40-44 Bike Rack Multisport 1:34:25 374
View 103 Dundas, David Baltimore MD 28 M Clydesdale 1:34:27 288
View 104 Glennon, Garret Towson MD 39 M M35-39 1:34:33 155
View 105 Albrecht, Michelle Randallstown MD 33 F F30-34 1:34:37 316
View 106 Mckee, Christy Montgomery Village MD 32 F F30-34 1:35:08 319
View 107 Schwartz, Rebecca Ellicott City MD 26 F F25-29 Howard County Striders 1:35:09 304
View 108 Waters, Matthew Reisterstown MD 31 M M30-34 1:35:10 120
View 109 Furnari, Theresa Baltimore MD 50 F F50-54 Baltimore Area Triathletes 1:35:14 396
View 110 Watkins, Madeleine Bethesda MD 23 F F20-24 1:35:19 301
View 111 Harris, Jonathan Westminster MD 31 M M30-34 1:35:57 117
View 112 Hoban, Joseph Wayne PA 48 M M45-49 1:35:59 240
View 113 Galvis, Daniel Pittsburgh PA 46 M M45-49 1:36:01 235
View 114 Pron, Lisa Spring City PA 41 F F40-44 1:36:03 359
View 115 O'connor, Brian Nottingham MD 31 M M30-34 1:36:08 121
View 116 Violanti, Christopher White Hall MD 45 M M45-49 Tri-Speed 1:36:17 208
View 117 Weaver, Elizabeth Chevy Chase MD 56 F F55-59 DC Triathlon Club 1:36:21 409
View 118 Clayton, Leigh Severna Park MD 40 F F40-44 1:36:34 356
View 119 Mattice, Ian Annapolis MD 34 M Clydesdale Annapolis Triathlon Club 1:36:43 293
View 120 Hursey, William Hampstead MD 50 M M50-54 1:37:15 246
View 121 Martinelli, Vincent Arlington VA 28 M Clydesdale 1:37:45 290
View 122 Connor, Chip Glen Arm MD 57 M M55-59 Baltimore Area Triathlon Club (BATC) 1:37:49 260
View 123 Dunn, Mark Ellicott City MD 39 M M35-39 1:37:56 147
View 124 Armstrong, Paul Fort Meade MD 47 M M45-49 Mid-Maryland Tri Club 1:38:00 226
View 125 Mitchell, Jim Reisterstown MD 47 M M45-49 Mid-Maryland Tri Club 1:38:25 217
View 126 Kosar, Ronald Churchville MD 39 M M35-39 1:38:31 162
View 127 Strine, Dan Wesminster MD 33 M M30-34 Hopkins RESTORE Team 1:38:41 126
View 128 Lincoln, Julie Arnold MD 40 F F40-44 1:38:45 372
View 129 Bedore, Charles Gaithersburg MD 46 M M45-49 MOCO Multisport Club 1:38:45 211
View 130 Standard, Todd Huntingtown MD 47 M M45-49 1:38:46 212
View 131 Fernandes, Gregg Ellicott City MD 42 M M40-44 1:38:57 186
View 132 Kramer, Kimberly   33 F F30-34 1:38:57 431
View 133 Nutter, Christopher Dover DE 41 M M40-44 Team Bricks MultiSport 1:39:08 171
View 134 Brenner, David Baltimore MD 25 M M25-29 Mid-Maryland Tri Club 1:39:21 103
View 135 Killmer, Tracy Sterling VA 42 F Athena 1:39:35 415
View 136 Cavalier, Lucas West Cape May NJ 23 M M20-24 1:39:40 81
View 137 Lyle, Trevor Harleysville PA 55 M M55-59 North Penn YMCA Triathlon Club 1:39:51 255
View 138 Snyder, Matthew Catonsville MD 33 M M30-34 1:39:57 122
View 139 Arida, Joseph Philadelphia PA 32 M Clydesdale 1:39:57 281
View 140 Finney, Stewart Baltimore MD 52 M M50-54 1:40:05 247
View 141 Shilling, Jocelyn Saylorsburg PA 49 F F45-49 1:40:07 391
View 142 Van Den Berg, Bart Reisterstown MD 54 M M50-54 1:40:12 244
View 143 Arnold, Brian Pasadena MD 40 M M40-44 1:40:13 196
View 144 Molloy, Kirsten Rockville MD 50 F F50-54 1:40:20 402
View 145 Molloy, Sean Rockville MD 48 M M45-49 1:40:26 223
View 146 Golding, Glenn Gaithersburg MD 48 M Clydesdale 1:40:29 215
View 147 Lemke, Klaus Westminster MD 50 M M50-54 1:40:38 243
View 148 Kness, Colin Lutherville MD 45 M M45-49 Baltimore Area Triathlon Club (BATC) 1:40:40 222
View 149 Pacchioni, Kendrick Columbia MD 17 M M0-19 1:40:52 76
View 150 Amato, Joe Ellicott City MD 67 M M65-69 1:40:53 272
View 151 Sommermann, Jenn Freeport NY 46 F F45-49 Team Total Training 1:41:15 379
View 152 Moyers, James Hebron MD 19 M M0-19 1:41:17 75
View 153 Teigen, Mike Crofton MD 40 M M40-44 1:41:21 191
View 154 Finney, Cheryl Baltimore MD 50 F F50-54 1:41:29 400
View 155 Haas, Brad Washington DC 27 M M25-29 1:41:30 92
View 156 Parsram, Dave Baltimore MD 35 M M35-39 1:41:33 154
View 157 Tonge, Abigail Rome ME 22 F F20-24 1:41:43 297
View 158 Kornblum, Joshua Annapolis MD 27 M M25-29 1:41:48 104
View 159 Morrow Iii, Vance Westminster MD 30 M M30-34 1:41:48 142
View 160 Lutz, Kristy Nottingham MD 30 F F30-34 1:41:51 332
View 161 Nicholas, Maria Boyds MD 39 F F35-39 1:42:00 343
View 162 Polak, Lisa Gaithersburg MD 46 F F45-49 1:42:10 390
View 163 Derewicz, David Hunt Valley MD 51 M Clydesdale MAC Running Club 1:42:16 279
View 164 Magruder, Julie Frederick MD 28 F F25-29 1:42:21 307
View 165 Singer, Charles Baltimore MD 16 M M0-19 1:42:28 418
View 166 Littles, Aaron Alexandria VA 28 M M25-29 1:42:37 109
View 167 Smith, Kathleen Washington DC 23 F F20-24 1:42:42 430
View 168 Green, Mike New Windsor MD 41 M M40-44 1:42:52 421
View 169 Moyer, William Dover DE 65 M M65-69 Team Bricks MultiSport 1:43:36 44
View 170 Pascale, Nathan Ellicott City MD 17 M M0-19 1:43:53 78
View 171 Smith, Brad North Beach MD 27 M M25-29 1:43:59 99
View 172 Trainor Iii, Eugene Reisterstown MD 47 M Clydesdale 1:44:03 289
View 173 Balch, Jeanne Reisterstown MD 40 F F40-44 1:44:22 354
View 174 Oshea, Maryline Annapolis MD 29 F F25-29 Annapolis Triathlon Club 1:44:46 313
View 175 Taleghani, Arash Rockville MD 35 M M35-39 1:45:01 153
View 176 Nelson, Brian Baltimore MD 40 M M40-44 1:45:08 176
View 177 Borzone, Robert Rockville Centre NY 45 M M45-49 1:45:15 236
View 178 Arnold, Rebecca Westminster MD 28 F F25-29 1:45:22 312
View 179 Collins, David Severn MD 49 M M45-49 1:45:22 238
View 180 Smith, Jeff Church Hill MD 51 M M50-54 1:45:23 251
View 181 Martin, James Washington DC 41 M M40-44 1:45:27 204
View 182 Knox, Virginia Middletown DE 40 F F40-44 Team Bricks MultiSport 1:46:21 367
View 183 Thiruselvam, David Newtown Square PA 48 M M45-49 1:46:21 241
View 184 Weddington, Jason Woodbridge VA 33 M M30-34 1:46:29 129
View 185 Cercy, Steven New York NY 46 M M45-49 1:46:32 220
View 186 Pacchioni, Kris Columbia MD 46 F F45-49 1:46:42 383
View 187 Agnetti, Giulio Baltimore MD 35 M M35-39 1:46:52 159
View 188 Dugan, Colleen Alexandria VA 31 F Athena Team Triumph South Jersey 1:46:56 416
View 189 Haygood, Matt Washington DC 28 M M25-29 1:46:58 91
View 190 Leiser, Peter Baltimore MD 44 M M40-44 1:47:02 179
View 191 Hettinger, Jason Indian Head MD 38 M M35-39 1:47:04 148
View 192 Lui, Tim Ellicott City MD 33 M Clydesdale 1:47:12 273
View 193 Zubek, Brian Baltimore MD 27 M M25-29 1:47:21 98
View 194 Morgan, Dick Severna Park MD 63 M M60-64 Annapolis Triathlon Club 1:47:31 265
View 195 Rosario, Gaspar Cape May NJ 38 M M35-39 1:47:56 157
View 196 Coleman, Adam Baltimore MD 28 M M25-29 1:47:59 101
View 197 Crawford, Kasey Hunt Valley MD 23 F F20-24 1:48:21 300
View 198 Verlaque, Matthew Baltimore MD 25 M Clydesdale 1:48:23 427
View 199 Van Den Berg, Ena Reisterstown MD 25 F F25-29 1:48:31 303
View 200 Fern, David Hampstead MD 47 M M45-49 1:48:40 210
View 201 Garner, Nicholas Linthicum Hieghts MD 26 M Clydesdale 1:48:46 285
View 202 Stultz, Jessica Alexandria VA 30 F F30-34 DC Triathlon Club 1:48:56 329
View 203 Desrosiers, Lynn Baltimore MD 30 F F30-34 1:48:59 326
View 204 Bonnett, Karin Germantown MD 45 F F45-49 1:48:59 385
View 205 Best, Tammie-lynn Warwick MD 36 F F35-39 1:49:09 351
View 206 Forsyth, Matt Eldersburg MD 42 M Clydesdale 1:49:15 280
View 207 Metge, Bruce Mclean VA 54 M M50-54 1:49:21 248
View 208 Gershowitz, Ben Owings Mills MD 49 M M45-49 1:49:21 219
View 209 Walsh, Brian Dover DE 56 M M55-59 Team Bricks MultiSport 1:49:25 253
View 210 Guiader, Catherine Annapolis MD 32 F F30-34 Annapolis Triathlon Club 1:49:30 327
View 211 Blackburn, Kory Upper Marlboro MD 34 M M30-34 1:49:57 114
View 212 Trumble, James Frederick MD 43 M M40-44 1:49:59 172
View 213 Bronov, Brad Magnolia DE 43 M M40-44 Team Bricks MultiSport 1:50:08 20
View 214 O'connor, Kara Nottingham MD 31 F F30-34 1:51:08 321
View 215 Puzio, Leslie Frederick MD 29 F F25-29 1:51:11 314
View 216 Molloy, Bryn North Bethesda MD 17 F F0-19 1:51:25 426
View 217 King, Lois Forest Hill MD 42 F F40-44 1:51:50 364
View 218 Mckee, Phillip Montgomery Village MD 64 M M60-64 1:51:54 266
View 219 Thoury, Laurianne Washington DC 32 F F30-34 1:51:54 330
View 220 Lazenby, Matt Baldwin MD 40 M M40-44 1:52:10 181
View 221 Griffith, Peter Baltimore MD 54 M M50-54 Baltimore Area Triathlon Club (BATC) 1:52:19 250
View 222 Dabkowski, Stan Manchester MD 55 M M55-59 1:52:29 257
View 223 Puzio, Jen Frederick MD 36 F F35-39 1:52:36 349
View 224 Fattahi, Omid Washington DC 39 M M35-39 1:52:45 163
View 225 Martz, Sheryl Arnold MD 41 F F40-44 1:52:45 355
View 226 Fenton, Christina Baltimore MD 30 F F30-34 1:52:59 325
View 227 Corrigan, Eileen Vienna VA 53 F F50-54 1:53:07 404
View 228 Rholl, Christine Alexandria VA 18 F F0-19 1:53:08 295
View 229 Rosa, Ramfis Annapolis MD 32 M M30-34 1:53:16 133
View 230 Salem, David Columbia MD 55 M M55-59 1:53:31 264
View 231 Sloan, Steven Gaithersburg MD 42 M M40-44 1:53:36 183
View 232 Bires, Jennifer Washington DC 28 F F25-29 1:53:42 302
View 233 Mcmoon, Michelle Baltimore MD 34 F F30-34 Baltimore Area Triathlon Club (BATC) 1:53:52 335
View 234 Trojecki, Barbara Fairless Hills PA 46 F F45-49 1:53:54 386
View 235 Liparini, Nicholas Ellicott City MD 41 M M40-44 1:54:18 188
View 236 Snyder, Natalie Baltimore MD 36 F F35-39 1:54:26 339
View 237 Shoemaker, Justin West Chester PA 32 M M30-34 1:54:27 118
View 238 Kuruc, Paula Pasadena MD 47 F F45-49 1:55:28 376
View 239 Mcdonnell, Jay Severna Park MD 46 M M45-49 1:55:39 209
View 240 Martinez, Juan Laurel MD 39 M M35-39 1:55:39 165
View 241 Finkel, Jessica Arlington VA 24 F F20-24 1:55:54 296
View 242 Mccarty, Jinnefer Owings Mills MD 31 F F30-34 1:56:19 318
View 243 Gladstein, Igol Ellicott City MD 40 M M40-44 1:56:23 192
View 244 Woodrow, Kevin Gaitehrsburg MD 55 M M55-59 1:56:44 258
View 245 Mathews, William Delta PA 48 M M45-49 1:56:58 214
View 246 Boswell, Rachel Woodsboro MD 34 F F30-34 1:57:06 317
View 247 Derby, Wendy Huntingtown MD 42 F F40-44 1:57:13 362
View 248 Barone, Anthony Washington DC 49 M M45-49 1:57:46 227
View 249 Tryon, Cory Kennett Square PA 36 F F35-39 KAY Triathlon Club 1:57:49 338
View 250 Cahill, Jason Arlington VA 32 M M30-34 1:57:51 128
View 251 Wilson, James Bel Air MD 43 M M40-44 Mid-Maryland Tri Club 1:58:03 198
View 252 Ramm, Louise Baltimore MD 65 F F65-69 1:58:03 412
View 253 Day, Rick Parkville MD 39 M M35-39 1:58:46 156
View 254 Radice, Robert Allentown PA 64 M M60-64 1:59:11 269
View 255 Castle, Dara Gaithersburg MD 44 F F40-44 2:00:56 368
View 256 Quinn, Penny Baltimore MD 50 F F50-54 Baltimore Area Triathlon Club (BATC) 2:01:13 401
View 257 Boyer, John Eldersburg MD 41 M M40-44 2:01:17 177
View 258 Lopez, Jeff Hanover MD 47 M M45-49 Mid-Maryland Tri Club 2:01:22 228
View 259 Ron, Jonathan Chevy Chase MD 34 M Clydesdale DC Triathlon Club 2:01:26 286
View 260 Orders, Louise Arnold MD 47 F F45-49 2:01:34 378
View 261 Hoffman, Terry Pasadena MD 45 F F45-49 2:02:45 387
View 262 Murphy, Brandi Eldersburg MD 35 F F35-39 2:02:46 342
View 263 Drone, Ian Arlington VA 26 M M25-29 2:03:03 97
View 264 Bethge, Donna Huntingtown MD 43 F F40-44 2:03:41 361
View 265 Oswald, Jill Westminster MD 36 F F35-39 2:04:08 352
View 266 Fulton, Douglas East Windsor NJ 46 M M45-49 2:04:17 218
View 267 Geppert, Carl Granite MD 47 M M45-49 Mid-Maryland Tri Club 2:04:42 239
View 268 Demajistre Sr, Robert Fenwick Island DE 63 M M60-64 Tri-Delaware 2:05:42 267
View 269 Owens, Brendan Baltimore MD 16 M M0-19 2:06:27 79
View 270 Conklin, Ed Ijamsville MD 56 M M55-59 2:06:29 261
View 271 Gervasio, Kristen Glen Rock PA 45 F F45-49 2:06:34 375
View 272 Hankin, Ann Reisterstown MD 53 F F50-54 2:06:59 403
View 273 Lalomia, Kurt Baltimore MD 45 M M45-49 Hopkins RESTORE Team 2:07:05 221
View 274 Charbonneau, Michael Poolesville MD 39 M Clydesdale 2:07:11 278
View 275 Moyes, Thayn Baltimore MD 37 M Clydesdale 2:07:11 284
View 276 Ford, Michelle Aberdeen MD 35 F F35-39 2:07:41 345
View 277 Tran, Tam Pittsburgh PA 45 M M45-49 2:07:53 231
View 278 Skram, Brian Arlington VA 23 M M20-24 Team in Training - NCAC 2:08:11 88
View 279 Kinsey, Joyce Arnold MD 42 F F40-44 2:09:21 357
View 280 Offutt, Carey Baltimore MD 25 F F25-29 2:11:21 306
View 281 Ruane, Heather Eldersburg MD 27 F F25-29 2:11:31 305
View 282 Mysior, Patricia Owings MD 56 F F55-59 2:11:35 407
View 283 Fregeau, Jean Ellicott City MD 49 F F45-49 2:11:37 384
View 284 Moore, Elizabeth Washington DC 24 F F20-24 2:11:50 299
View 285 Evans, Evan New Market MD 40 M Clydesdale 2:11:55 287
View 286 Crouthamel, Bob Gettysburg PA 61 M M60-64 2:13:07 271
View 287 Hemmer, Sarah Nottingham MD 32 F F30-34 2:13:13 328
View 288 Weaver, Heather Washington DC 42 F F40-44 2:13:26 360
View 289 O'connor, Elizabeth Newark DE 29 F F25-29 2:14:24 308
View 290 Moore, Clara Lancaster PA 43 F F40-44 2:15:22 373
View 291 Standard, Sarah Huntingtown MD 45 F F45-49 2:16:39 382
View 292 Irrgang, Kelly Colora MD 48 F F45-49 2:17:02 388
View 293 Juvonen, Allison Avondale PA 42 F F40-44 2:17:12 369
View 294 Langlois, Jennifer Leesburg VA 41 F F40-44 2:17:59 371
View 295 Milev, George Clarksburg MD 32 M M30-34 2:18:31 131
View 296 Reinecke-kashi, Tracey Ellicott City MD 40 F F40-44 2:19:56 365
View 297 Foley, Sandy Owings MD 64 F F60-64 2:22:04 411
View 298 Harrison, Todd Baltimore MD 45 M M45-49 2:25:25 230
View 299 Irrgang, Scott Colora MD 48 M M45-49 2:27:33 224
View 300 Thomas, Catherine Abingdon MD 34 F F30-34 2:27:38 320
View 301 Welsh, Myia Takoma Park MD 31 F F30-34 2:32:24 322
View 302 Garner, Melissa Linthicum Heights MD 27 F Athena 2:38:17 417
View 303 Novak, Julie Eldersburg MD 46 F Athena 2:39:53 414
View 304 Owens, Sharon Baltimore MD 52 F F50-54 2:39:56 399
View 305 Callahan, Kerry Owings MD 50 F F50-54 2:52:41 398
View 306 Kelly, Gayle Lutherville MD 46 F F45-49 392
View 307 Owens, Michael Arlington VA 25 M M25-29 Bike Rack Multisport 113
View 308 Redding, Christopher Huntingtown MD 19 M M0-19 432